createdAt,value
2022-12-12T00:00:30.823Z,-4.50
2022-12-12T00:01:36.856Z,-4.50
2022-12-12T00:02:39.670Z,-4.50
2022-12-12T00:03:41.614Z,-4.50
2022-12-12T00:04:43.277Z,-4.50
2022-12-12T00:05:44.952Z,-4.60
2022-12-12T00:06:46.643Z,-4.60
2022-12-12T00:07:48.433Z,-4.60
2022-12-12T00:08:50.603Z,-4.60
2022-12-12T00:09:52.191Z,-4.60
2022-12-12T00:11:58.369Z,-4.50
2022-12-12T00:13:00.188Z,-4.50
2022-12-12T00:14:01.816Z,-4.50
2022-12-12T00:15:04.623Z,-4.40
2022-12-12T00:16:08.381Z,-4.40
2022-12-12T00:17:10.047Z,-4.50
2022-12-12T00:18:11.633Z,-4.50
2022-12-12T00:19:13.326Z,-4.60
2022-12-12T00:20:15.021Z,-4.60
2022-12-12T00:21:20.961Z,-4.50
2022-12-12T00:22:22.832Z,-4.60
2022-12-12T00:23:26.318Z,-4.60
2022-12-12T00:24:27.921Z,-4.60
2022-12-12T00:25:29.517Z,-4.50
2022-12-12T00:26:33.069Z,-4.40
2022-12-12T00:27:34.899Z,-4.40
2022-12-12T00:28:36.574Z,-4.40
2022-12-12T00:29:38.198Z,-4.40
2022-12-12T00:30:39.794Z,-4.50
2022-12-12T00:31:41.415Z,-4.60
2022-12-12T00:32:43.091Z,-4.60
2022-12-12T00:33:46.648Z,-4.60
2022-12-12T00:34:48.286Z,-4.50
2022-12-12T00:35:54.547Z,-4.50
2022-12-12T00:36:56.147Z,-4.50
2022-12-12T00:37:57.766Z,-4.50
2022-12-12T00:39:00.081Z,-4.50
2022-12-12T00:40:02.050Z,-4.50
2022-12-12T00:41:05.780Z,-4.50
2022-12-12T00:42:07.486Z,-4.50
2022-12-12T00:43:09.453Z,-4.50
2022-12-12T00:44:11.305Z,-4.50
2022-12-12T00:45:13.034Z,-4.40
2022-12-12T00:46:16.619Z,-4.40
2022-12-12T00:47:18.283Z,-4.40
2022-12-12T00:48:20.671Z,-4.50
2022-12-12T00:49:23.387Z,-4.50
2022-12-12T00:50:25.063Z,-4.50
2022-12-12T00:51:28.379Z,-4.50
2022-12-12T00:52:29.994Z,-4.50
2022-12-12T00:53:31.628Z,-4.50
2022-12-12T00:54:33.270Z,-4.50
2022-12-12T00:55:34.908Z,-4.50
2022-12-12T00:56:36.620Z,-4.60
2022-12-12T00:57:38.525Z,-4.60
2022-12-12T00:58:40.176Z,-4.70
2022-12-12T00:59:41.770Z,-4.70
2022-12-12T01:00:43.753Z,-4.70
2022-12-12T01:01:46.541Z,-4.70
2022-12-12T01:02:48.518Z,-4.70
2022-12-12T01:03:51.107Z,-4.70
2022-12-12T01:04:52.723Z,-4.80
2022-12-12T01:05:54.299Z,-4.80
2022-12-12T01:06:55.909Z,-4.70
2022-12-12T01:07:57.590Z,-4.70
2022-12-12T01:08:59.611Z,-4.70
2022-12-12T01:10:01.281Z,-4.70
2022-12-12T01:11:03.185Z,-4.70
2022-12-12T01:12:04.830Z,-4.60
2022-12-12T01:13:06.525Z,-4.60
2022-12-12T01:14:08.536Z,-4.70
2022-12-12T01:15:11.611Z,-4.80
2022-12-12T01:16:14.324Z,-4.70
2022-12-12T01:17:16.020Z,-4.70
2022-12-12T01:18:18.394Z,-4.70
2022-12-12T01:19:20.211Z,-4.70
2022-12-12T01:20:26.024Z,-4.80
2022-12-12T01:21:28.047Z,-4.90
2022-12-12T01:22:30.623Z,-4.90
2022-12-12T01:23:32.208Z,-4.80
2022-12-12T01:24:34.009Z,-4.80
2022-12-12T01:25:35.879Z,-4.80
2022-12-12T01:26:37.610Z,-4.80
2022-12-12T01:27:39.373Z,-4.80
2022-12-12T01:28:42.522Z,-4.80
2022-12-12T01:29:44.127Z,-4.70
2022-12-12T01:30:45.763Z,-4.70
2022-12-12T01:31:47.499Z,-4.70
2022-12-12T01:32:49.507Z,-4.70
2022-12-12T01:33:51.543Z,-4.80
2022-12-12T01:34:53.172Z,-4.80
2022-12-12T01:35:54.823Z,-4.70
2022-12-12T01:36:56.424Z,-4.70
2022-12-12T01:37:58.013Z,-4.80
2022-12-12T01:39:00.606Z,-4.80
2022-12-12T01:40:02.796Z,-4.80
2022-12-12T01:41:04.511Z,-4.80
2022-12-12T01:42:15.321Z,-4.80
2022-12-12T01:43:19.388Z,-4.80
2022-12-12T01:44:52.735Z,-4.80
2022-12-12T01:46:01.167Z,-4.80
2022-12-12T01:47:02.773Z,-4.80
2022-12-12T01:48:05.552Z,-4.80
2022-12-12T01:49:15.684Z,-4.80
2022-12-12T01:50:17.292Z,-4.70
2022-12-12T01:51:23.382Z,-4.80
2022-12-12T01:52:32.519Z,-4.70
2022-12-12T01:53:34.775Z,-4.70
2022-12-12T01:54:41.624Z,-4.70
2022-12-12T01:55:43.295Z,-4.70
2022-12-12T01:56:46.539Z,-4.70
2022-12-12T01:57:51.918Z,-4.60
2022-12-12T01:58:55.267Z,-4.70
2022-12-12T01:59:58.489Z,-4.70
2022-12-12T02:01:01.023Z,-4.70
2022-12-12T02:02:03.238Z,-4.70
2022-12-12T02:03:04.946Z,-4.60
2022-12-12T02:04:07.828Z,-4.70
2022-12-12T02:05:18.496Z,-4.70
2022-12-12T02:06:26.652Z,-4.70
2022-12-12T02:07:28.285Z,-4.70
2022-12-12T02:08:30.651Z,-4.70
2022-12-12T02:09:33.579Z,-4.80
2022-12-12T02:10:35.508Z,-4.80
2022-12-12T02:11:47.079Z,-4.80
2022-12-12T02:12:48.755Z,-4.80
2022-12-12T02:13:50.992Z,-4.80
2022-12-12T02:14:53.792Z,-4.80
2022-12-12T02:16:20.484Z,-4.90
2022-12-12T02:17:56.019Z,-4.90
2022-12-12T02:19:22.018Z,-4.90
2022-12-12T02:21:04.951Z,-4.90
2022-12-12T02:22:21.969Z,-4.90
2022-12-12T02:23:45.770Z,-4.90
2022-12-12T02:25:15.390Z,-4.90
2022-12-12T02:26:53.361Z,-4.90
2022-12-12T02:27:57.678Z,-5.00
2022-12-12T02:29:38.348Z,-5.00
2022-12-12T02:31:10.766Z,-5.00
2022-12-12T02:32:27.197Z,-5.00
2022-12-12T02:33:37.599Z,-5.10
2022-12-12T02:34:56.889Z,-5.00
2022-12-12T02:36:11.585Z,-5.00
2022-12-12T02:37:25.566Z,-5.00
2022-12-12T02:38:42.057Z,-5.00
2022-12-12T02:40:15.135Z,-5.00
2022-12-12T02:41:35.878Z,-5.00
2022-12-12T02:42:53.805Z,-5.00
2022-12-12T02:44:16.928Z,-5.00
2022-12-12T02:45:30.370Z,-5.00
2022-12-12T02:46:46.181Z,-5.00
2022-12-12T02:47:57.626Z,-5.00
2022-12-12T02:49:13.319Z,-5.10
2022-12-12T02:50:20.571Z,-5.10
2022-12-12T02:51:23.499Z,-5.10
2022-12-12T02:52:25.669Z,-5.10
2022-12-12T02:53:27.943Z,-5.10
2022-12-12T02:54:29.764Z,-5.10
2022-12-12T02:55:35.097Z,-5.20
2022-12-12T02:56:43.803Z,-5.30
2022-12-12T02:57:45.969Z,-5.30
2022-12-12T02:58:47.614Z,-5.40
2022-12-12T02:59:55.188Z,-5.50
2022-12-12T03:01:29.937Z,-5.40
2022-12-12T03:02:37.141Z,-5.40
2022-12-12T03:04:30.721Z,-5.30
2022-12-12T03:06:03.980Z,-5.20
2022-12-12T03:07:45.704Z,-5.20
2022-12-12T03:09:24.849Z,-5.10
2022-12-12T03:10:34.650Z,-5.20
2022-12-12T03:11:52.677Z,-5.20
2022-12-12T03:13:16.818Z,-5.20
2022-12-12T03:14:46.675Z,-5.20
2022-12-12T03:16:09.562Z,-5.20
2022-12-12T03:17:22.663Z,-5.30
2022-12-12T03:18:50.905Z,-5.30
2022-12-12T03:20:17.637Z,-5.20
2022-12-12T03:21:48.942Z,-5.20
2022-12-12T03:23:02.403Z,-5.20
2022-12-12T03:24:10.532Z,-5.20
2022-12-12T03:25:17.933Z,-5.30
2022-12-12T03:26:28.535Z,-5.30
2022-12-12T03:27:53.468Z,-5.30
2022-12-12T03:29:18.200Z,-5.30
2022-12-12T03:30:20.430Z,-5.40
2022-12-12T03:31:28.089Z,-5.50
2022-12-12T03:32:41.190Z,-5.50
2022-12-12T03:33:48.785Z,-5.40
2022-12-12T03:34:58.854Z,-5.40
2022-12-12T03:36:28.286Z,-5.50
2022-12-12T03:37:44.226Z,-5.60
2022-12-12T03:38:57.095Z,-5.60
2022-12-12T03:40:03.456Z,-5.70
2022-12-12T03:41:12.353Z,-5.70
2022-12-12T03:42:22.523Z,-5.80
2022-12-12T03:43:35.164Z,-5.70
2022-12-12T03:44:47.970Z,-5.60
2022-12-12T03:46:20.422Z,-5.50
2022-12-12T03:47:29.797Z,-5.50
2022-12-12T03:48:36.728Z,-5.40
2022-12-12T03:49:52.569Z,-5.50
2022-12-12T03:51:09.669Z,-5.40
2022-12-12T03:52:22.072Z,-5.40
2022-12-12T03:53:54.576Z,-5.40
2022-12-12T03:55:20.121Z,-5.40
2022-12-12T03:56:24.165Z,-5.50
2022-12-12T03:57:40.895Z,-5.40
2022-12-12T03:59:02.428Z,-5.50
2022-12-12T04:00:07.831Z,-5.60
2022-12-12T04:01:11.910Z,-5.60
2022-12-12T04:02:19.702Z,-5.60
2022-12-12T04:03:25.765Z,-5.70
2022-12-12T04:04:38.999Z,-5.70
2022-12-12T04:06:10.526Z,-5.60
2022-12-12T04:07:33.278Z,-5.60
2022-12-12T04:08:35.382Z,-5.60
2022-12-12T04:09:55.881Z,-5.70
2022-12-12T04:11:34.998Z,-5.70
2022-12-12T04:13:00.851Z,-5.50
2022-12-12T04:14:10.504Z,-5.60
2022-12-12T04:15:41.258Z,-5.60
2022-12-12T04:16:46.240Z,-5.60
2022-12-12T04:18:06.093Z,-5.60
2022-12-12T04:19:43.781Z,-5.50
2022-12-12T04:21:35.921Z,-5.50
2022-12-12T04:23:04.148Z,-5.50
2022-12-12T04:24:21.264Z,-5.40
2022-12-12T04:25:28.749Z,-5.40
2022-12-12T04:26:41.670Z,-5.40
2022-12-12T04:27:50.719Z,-5.40
2022-12-12T04:29:02.929Z,-5.40
2022-12-12T04:30:11.230Z,-5.30
2022-12-12T04:31:15.747Z,-5.30
2022-12-12T04:32:31.559Z,-5.30
2022-12-12T04:33:43.644Z,-5.40
2022-12-12T04:35:16.958Z,-5.40
2022-12-12T04:36:22.736Z,-5.40
2022-12-12T04:37:32.589Z,-5.40
2022-12-12T04:38:35.982Z,-5.40
2022-12-12T04:39:38.920Z,-5.40
2022-12-12T04:40:44.321Z,-5.50
2022-12-12T04:41:48.409Z,-5.50
2022-12-12T04:43:10.078Z,-5.50
2022-12-12T04:44:14.063Z,-5.50
2022-12-12T04:45:21.660Z,-5.50
2022-12-12T04:46:26.187Z,-5.50
2022-12-12T04:47:31.630Z,-5.50
2022-12-12T04:48:49.790Z,-5.40
2022-12-12T04:49:55.511Z,-5.40
2022-12-12T04:50:59.275Z,-5.40
2022-12-12T04:52:06.194Z,-5.50
2022-12-12T04:53:18.338Z,-5.50
2022-12-12T04:54:39.400Z,-5.50
2022-12-12T04:55:46.537Z,-5.60
2022-12-12T04:56:54.324Z,-5.50
2022-12-12T04:57:56.552Z,-5.50
2022-12-12T04:58:58.834Z,-5.50
2022-12-12T05:00:00.804Z,-5.50
2022-12-12T05:01:10.657Z,-5.50
2022-12-12T05:02:20.347Z,-5.60
2022-12-12T05:03:49.413Z,-5.50
2022-12-12T05:05:15.555Z,-5.50
2022-12-12T05:06:22.181Z,-5.50
2022-12-12T05:07:40.716Z,-5.40
2022-12-12T05:08:45.891Z,-5.50
2022-12-12T05:09:48.266Z,-5.50
2022-12-12T05:10:56.919Z,-5.50
2022-12-12T05:11:58.711Z,-5.40
2022-12-12T05:13:01.201Z,-5.40
2022-12-12T05:14:02.954Z,-5.50
2022-12-12T05:15:05.524Z,-5.40
2022-12-12T05:16:32.363Z,-5.50
2022-12-12T05:17:45.784Z,-5.50
2022-12-12T05:18:48.104Z,-5.50
2022-12-12T05:19:49.709Z,-5.50
2022-12-12T05:20:51.426Z,-5.50
2022-12-12T05:21:53.034Z,-5.50
2022-12-12T05:22:54.668Z,-5.50
2022-12-12T05:23:56.267Z,-5.50
2022-12-12T05:24:57.864Z,-5.50
2022-12-12T05:25:59.500Z,-5.50
2022-12-12T05:27:01.401Z,-5.50
2022-12-12T05:28:03.143Z,-5.60
2022-12-12T05:29:07.761Z,-5.60
2022-12-12T05:30:10.185Z,-5.60
2022-12-12T05:31:11.842Z,-5.60
2022-12-12T05:32:13.526Z,-5.70
2022-12-12T05:33:15.171Z,-5.70
2022-12-12T05:34:16.859Z,-5.60
2022-12-12T05:35:18.883Z,-5.60
2022-12-12T05:36:21.518Z,-5.70
2022-12-12T05:37:23.171Z,-5.60
2022-12-12T05:38:24.788Z,-5.70
2022-12-12T05:39:26.383Z,-5.70
2022-12-12T05:40:28.000Z,-5.70
2022-12-12T05:41:29.592Z,-5.70
2022-12-12T05:42:31.204Z,-5.70
2022-12-12T05:43:33.214Z,-5.80
2022-12-12T05:44:34.851Z,-5.80
2022-12-12T05:45:36.451Z,-5.80
2022-12-12T05:46:38.054Z,-5.80
2022-12-12T05:47:39.699Z,-5.80
2022-12-12T05:48:41.285Z,-5.80
2022-12-12T05:49:42.916Z,-5.70
2022-12-12T05:50:44.904Z,-5.70
2022-12-12T05:51:46.492Z,-5.70
2022-12-12T05:52:48.142Z,-5.70
2022-12-12T05:53:49.755Z,-5.80
2022-12-12T05:54:51.394Z,-5.80
2022-12-12T05:55:53.048Z,-5.80
2022-12-12T05:56:54.665Z,-5.70
2022-12-12T05:57:56.325Z,-5.70
2022-12-12T05:58:57.948Z,-5.80
2022-12-12T05:59:59.552Z,-5.80
2022-12-12T06:01:04.334Z,-5.70
2022-12-12T06:02:05.966Z,-5.80
2022-12-12T06:03:07.643Z,-5.80
2022-12-12T06:04:09.307Z,-5.80
2022-12-12T06:05:11.356Z,-5.90
2022-12-12T06:06:13.331Z,-5.80
2022-12-12T06:07:14.995Z,-5.80
2022-12-12T06:08:19.835Z,-5.70
2022-12-12T06:09:25.322Z,-5.70
2022-12-12T06:10:28.199Z,-5.70
2022-12-12T06:11:44.907Z,-5.70
2022-12-12T06:12:46.619Z,-5.70
2022-12-12T06:13:48.302Z,-5.70
2022-12-12T06:14:49.954Z,-5.70
2022-12-12T06:15:51.782Z,-5.80
2022-12-12T06:16:53.375Z,-5.80
2022-12-12T06:17:55.060Z,-5.70
2022-12-12T06:18:56.950Z,-5.80
2022-12-12T06:19:58.569Z,-5.80
2022-12-12T06:21:08.159Z,-5.70
2022-12-12T06:22:09.864Z,-5.70
2022-12-12T06:23:11.543Z,-5.70
2022-12-12T06:24:13.418Z,-5.80
2022-12-12T06:25:15.310Z,-5.80
2022-12-12T06:26:18.949Z,-5.80
2022-12-12T06:27:20.640Z,-5.90
2022-12-12T06:28:22.318Z,-6.00
2022-12-12T06:29:23.966Z,-6.00
2022-12-12T06:30:25.604Z,-6.00
2022-12-12T06:31:27.300Z,-6.10
2022-12-12T06:32:28.928Z,-6.10
2022-12-12T06:33:32.439Z,-6.10
2022-12-12T06:34:34.138Z,-6.10
2022-12-12T06:35:35.747Z,-6.00
2022-12-12T06:36:37.782Z,-6.00
2022-12-12T06:37:40.543Z,-6.00
2022-12-12T06:38:42.611Z,-5.90
2022-12-12T06:39:44.443Z,-5.90
2022-12-12T06:40:46.024Z,-5.90
2022-12-12T06:41:47.706Z,-5.90
2022-12-12T06:42:49.396Z,-5.80
2022-12-12T06:43:51.606Z,-5.90
2022-12-12T06:44:53.244Z,-5.90
2022-12-12T06:46:01.165Z,-5.90
2022-12-12T06:47:02.816Z,-5.90
2022-12-12T06:48:04.584Z,-6.00
2022-12-12T06:49:09.688Z,-5.90
2022-12-12T06:50:11.631Z,-5.90
2022-12-12T06:51:19.215Z,-5.90
2022-12-12T06:52:20.880Z,-5.90
2022-12-12T06:53:22.499Z,-5.90
2022-12-12T06:54:24.134Z,-5.90
2022-12-12T06:55:25.774Z,-6.00
2022-12-12T06:56:28.013Z,-6.00
2022-12-12T06:57:29.642Z,-6.00
2022-12-12T06:58:31.293Z,-6.00
2022-12-12T06:59:32.989Z,-5.90
2022-12-12T07:00:34.943Z,-5.90
2022-12-12T07:01:36.630Z,-5.90
2022-12-12T07:02:38.383Z,-6.00
2022-12-12T07:03:40.221Z,-6.00
2022-12-12T07:04:41.823Z,-6.10
2022-12-12T07:05:45.293Z,-6.10
2022-12-12T07:06:46.886Z,-6.10
2022-12-12T07:07:48.534Z,-6.00
2022-12-12T07:08:51.822Z,-6.00
2022-12-12T07:09:53.476Z,-6.10
2022-12-12T07:10:55.773Z,-6.10
2022-12-12T07:11:57.372Z,-6.10
2022-12-12T07:12:58.991Z,-6.00
2022-12-12T07:14:03.624Z,-6.00
2022-12-12T07:15:05.631Z,-6.10
2022-12-12T07:16:07.875Z,-6.00
2022-12-12T07:17:09.571Z,-6.00
2022-12-12T07:18:11.360Z,-6.00
2022-12-12T07:19:13.025Z,-6.00
2022-12-12T07:20:14.662Z,-6.00
2022-12-12T07:21:19.336Z,-6.00
2022-12-12T07:22:20.950Z,-6.00
2022-12-12T07:23:22.630Z,-6.00
2022-12-12T07:24:24.224Z,-6.00
2022-12-12T07:25:25.823Z,-6.00
2022-12-12T07:26:27.509Z,-5.90
2022-12-12T07:27:29.163Z,-6.00
2022-12-12T07:28:31.006Z,-6.00
2022-12-12T07:29:32.806Z,-5.90
2022-12-12T07:30:34.866Z,-5.90
2022-12-12T07:31:36.738Z,-5.90
2022-12-12T07:32:38.404Z,-5.90
2022-12-12T07:33:44.124Z,-5.90
2022-12-12T07:34:46.338Z,-5.90
2022-12-12T07:35:48.010Z,-5.90
2022-12-12T07:36:49.664Z,-5.80
2022-12-12T07:37:51.549Z,-5.80
2022-12-12T07:38:53.278Z,-5.80
2022-12-12T07:39:54.855Z,-5.90
2022-12-12T07:40:56.487Z,-5.80
2022-12-12T07:41:58.165Z,-5.80
2022-12-12T07:43:00.291Z,-5.80
2022-12-12T07:44:01.955Z,-5.80
2022-12-12T07:45:03.984Z,-5.80
2022-12-12T07:46:10.263Z,-5.80
2022-12-12T07:47:11.986Z,-5.80
2022-12-12T07:48:14.905Z,-5.90
2022-12-12T07:49:16.526Z,-6.00
2022-12-12T07:50:18.571Z,-6.00
2022-12-12T07:51:20.564Z,-6.10
2022-12-12T07:52:22.241Z,-6.10
2022-12-12T07:53:23.868Z,-6.10
2022-12-12T07:54:25.529Z,-6.10
2022-12-12T07:55:27.201Z,-6.20
2022-12-12T07:56:28.859Z,-6.20
2022-12-12T07:57:31.281Z,-6.20
2022-12-12T07:58:33.408Z,-6.20
2022-12-12T07:59:35.116Z,-6.20
2022-12-12T08:00:36.757Z,-6.20
2022-12-12T08:01:39.134Z,-6.20
2022-12-12T08:02:41.007Z,-6.20
2022-12-12T08:03:44.394Z,-6.20
2022-12-12T08:04:46.308Z,-6.00
2022-12-12T08:05:47.975Z,-5.90
2022-12-12T08:06:52.737Z,-5.90
2022-12-12T08:07:59.642Z,-5.80
2022-12-12T08:09:01.284Z,-5.90
2022-12-12T08:10:03.545Z,-5.80
2022-12-12T08:11:07.408Z,-5.80
2022-12-12T08:12:09.089Z,-5.80
2022-12-12T08:13:10.748Z,-5.70
2022-12-12T08:14:13.221Z,-5.80
2022-12-12T08:15:17.096Z,-5.70
2022-12-12T08:16:24.720Z,-5.70
2022-12-12T08:17:26.500Z,-5.80
2022-12-12T08:18:28.562Z,-5.80
2022-12-12T08:19:30.232Z,-5.80
2022-12-12T08:20:31.889Z,-5.90
2022-12-12T08:21:33.997Z,-5.80
2022-12-12T08:22:35.642Z,-5.80
2022-12-12T08:23:38.097Z,-5.80
2022-12-12T08:24:39.924Z,-5.70
2022-12-12T08:25:41.512Z,-5.70
2022-12-12T08:26:43.791Z,-5.60
2022-12-12T08:27:45.392Z,-5.50
2022-12-12T08:28:49.306Z,-5.50
2022-12-12T08:29:54.653Z,-5.40
2022-12-12T08:30:56.350Z,-5.40
2022-12-12T08:31:58.241Z,-5.40
2022-12-12T08:33:04.916Z,-5.40
2022-12-12T08:34:09.703Z,-5.40
2022-12-12T08:35:11.688Z,-5.40
2022-12-12T08:36:20.901Z,-5.40
2022-12-12T08:37:22.511Z,-5.30
2022-12-12T08:38:24.359Z,-5.30
2022-12-12T08:39:26.000Z,-5.30
2022-12-12T08:40:27.612Z,-5.20
2022-12-12T08:41:29.180Z,-5.20
2022-12-12T08:42:30.782Z,-5.20
2022-12-12T08:43:32.488Z,-5.10
2022-12-12T08:44:34.317Z,-5.10
2022-12-12T08:45:37.698Z,-5.10
2022-12-12T08:46:39.448Z,-5.10
2022-12-12T08:47:41.151Z,-5.10
2022-12-12T08:48:43.003Z,-5.10
2022-12-12T08:49:44.679Z,-5.10
2022-12-12T08:50:46.274Z,-5.10
2022-12-12T08:51:47.921Z,-5.10
2022-12-12T08:52:49.591Z,-5.00
2022-12-12T08:53:53.813Z,-5.00
2022-12-12T08:54:55.527Z,-5.00
2022-12-12T08:55:57.147Z,-5.00
2022-12-12T08:56:58.744Z,-5.00
2022-12-12T08:58:00.386Z,-4.90
2022-12-12T08:59:02.950Z,-4.90
2022-12-12T09:00:05.807Z,-4.80
2022-12-12T09:01:12.256Z,-4.80
2022-12-12T09:02:14.019Z,-4.90
2022-12-12T09:03:17.503Z,-4.80
2022-12-12T09:04:19.103Z,-4.70
2022-12-12T09:05:20.954Z,-4.80
2022-12-12T09:06:24.334Z,-4.80
2022-12-12T09:07:26.617Z,-4.80
2022-12-12T09:08:28.253Z,-4.70
2022-12-12T09:09:30.220Z,-4.70
2022-12-12T09:10:32.152Z,-4.70
2022-12-12T09:11:33.777Z,-4.80
2022-12-12T09:12:41.275Z,-4.80
2022-12-12T09:13:43.757Z,-4.80
2022-12-12T09:14:45.364Z,-4.80
2022-12-12T09:15:51.193Z,-4.80
2022-12-12T09:16:53.322Z,-4.80
2022-12-12T09:17:54.912Z,-4.80
2022-12-12T09:18:56.978Z,-4.80
2022-12-12T09:19:58.560Z,-4.80
2022-12-12T09:21:00.419Z,-4.80
2022-12-12T09:22:03.560Z,-4.80
2022-12-12T09:23:05.228Z,-4.70
2022-12-12T09:24:07.536Z,-4.70
2022-12-12T09:25:10.363Z,-4.70
2022-12-12T09:26:12.283Z,-4.70
2022-12-12T09:27:14.077Z,-4.70
2022-12-12T09:28:17.438Z,-4.70
2022-12-12T09:29:19.019Z,-4.60
2022-12-12T09:30:21.891Z,-4.70
2022-12-12T09:31:23.602Z,-4.60
2022-12-12T09:32:25.608Z,-4.60
2022-12-12T09:33:27.674Z,-4.70
2022-12-12T09:34:29.323Z,-4.70
2022-12-12T09:35:31.310Z,-4.70
2022-12-12T09:36:33.175Z,-4.60
2022-12-12T09:37:35.005Z,-4.60
2022-12-12T09:38:36.686Z,-4.50
2022-12-12T09:39:38.300Z,-4.50
2022-12-12T09:40:52.751Z,-4.50
2022-12-12T09:41:54.532Z,-4.40
2022-12-12T09:42:56.488Z,-4.40
2022-12-12T09:44:11.248Z,-4.40
2022-12-12T09:45:13.521Z,-4.40
2022-12-12T09:46:34.969Z,-4.40
2022-12-12T09:47:40.441Z,-4.40
2022-12-12T09:48:46.780Z,-4.30
2022-12-12T09:49:54.184Z,-4.30
2022-12-12T09:50:55.843Z,-4.40
2022-12-12T09:51:58.533Z,-4.30
2022-12-12T09:53:02.990Z,-4.30
2022-12-12T09:54:05.255Z,-4.30
2022-12-12T09:55:35.772Z,-4.30
2022-12-12T09:57:15.511Z,-4.30
2022-12-12T09:58:57.129Z,-4.20
2022-12-12T10:00:12.290Z,-4.20
2022-12-12T10:01:32.455Z,-4.10
2022-12-12T10:03:05.192Z,-4.10
2022-12-12T10:04:20.175Z,-4.10
2022-12-12T10:05:36.372Z,-4.10
2022-12-12T10:07:01.879Z,-4.10
2022-12-12T10:08:14.255Z,-4.10
2022-12-12T10:09:46.627Z,-4.00
2022-12-12T10:10:52.648Z,-3.90
2022-12-12T10:11:55.623Z,-3.90
2022-12-12T10:12:58.493Z,-3.80
2022-12-12T10:14:03.837Z,-3.80
2022-12-12T10:15:08.542Z,-3.70
2022-12-12T10:16:14.444Z,-3.70
2022-12-12T10:17:22.795Z,-3.70
2022-12-12T10:18:31.952Z,-3.60
2022-12-12T10:19:42.347Z,-3.60
2022-12-12T10:20:49.000Z,-3.40
2022-12-12T10:21:52.901Z,-2.90
2022-12-12T10:23:13.329Z,-2.30
2022-12-12T10:24:32.722Z,-1.40
2022-12-12T10:25:49.718Z,-0.60
2022-12-12T10:26:52.861Z,0.10
2022-12-12T10:28:09.678Z,0.90
2022-12-12T10:29:22.870Z,1.10
2022-12-12T10:30:24.591Z,1.50
2022-12-12T10:31:54.774Z,1.90
2022-12-12T10:33:09.659Z,2.00
2022-12-12T10:34:51.850Z,2.20
2022-12-12T10:36:08.975Z,2.50
2022-12-12T10:37:41.563Z,2.50
2022-12-12T10:39:31.173Z,2.60
2022-12-12T10:40:46.383Z,2.60
2022-12-12T10:42:03.374Z,2.50
2022-12-12T10:43:19.125Z,2.40
2022-12-12T10:44:37.796Z,2.30
2022-12-12T10:45:51.345Z,2.20
2022-12-12T10:47:02.212Z,2.30
2022-12-12T10:48:04.486Z,2.50
2022-12-12T10:49:17.457Z,2.70
2022-12-12T10:50:54.139Z,3.00
2022-12-12T10:51:57.630Z,3.20
2022-12-12T10:53:00.286Z,3.40
2022-12-12T10:54:05.772Z,3.50
2022-12-12T10:55:34.567Z,3.50
2022-12-12T10:56:36.192Z,3.40
2022-12-12T10:57:37.762Z,3.30
2022-12-12T10:58:41.902Z,3.00
2022-12-12T10:59:52.222Z,2.80
2022-12-12T11:01:02.515Z,2.50
2022-12-12T11:02:11.445Z,2.40
2022-12-12T11:03:22.343Z,2.30
2022-12-12T11:04:25.375Z,2.30
2022-12-12T11:05:29.645Z,2.10
2022-12-12T11:06:39.805Z,2.10
2022-12-12T11:07:44.976Z,2.10
2022-12-12T11:09:23.417Z,2.10
2022-12-12T11:10:34.557Z,2.00
2022-12-12T11:11:36.547Z,2.00
2022-12-12T11:12:38.250Z,1.80
2022-12-12T11:14:03.888Z,1.80
2022-12-12T11:15:16.092Z,1.60
2022-12-12T11:16:22.217Z,1.40
2022-12-12T11:17:29.822Z,1.30
2022-12-12T11:18:31.634Z,1.10
2022-12-12T11:19:38.547Z,1.00
2022-12-12T11:20:49.587Z,0.90
2022-12-12T11:21:53.241Z,0.80
2022-12-12T11:22:56.756Z,0.80
2022-12-12T11:23:59.444Z,0.80
2022-12-12T11:25:01.292Z,0.90
2022-12-12T11:26:11.321Z,1.10
2022-12-12T11:27:23.615Z,1.20
2022-12-12T11:28:29.816Z,1.20
2022-12-12T11:29:40.275Z,1.20
2022-12-12T11:30:44.029Z,1.20
2022-12-12T11:31:45.809Z,1.20
2022-12-12T11:32:50.054Z,1.30
2022-12-12T11:33:55.728Z,1.40
2022-12-12T11:35:01.570Z,1.50
2022-12-12T11:36:06.407Z,1.70
2022-12-12T11:37:19.183Z,1.80
2022-12-12T11:38:26.100Z,2.00
2022-12-12T11:39:44.023Z,2.00
2022-12-12T11:40:55.497Z,2.10
2022-12-12T11:42:25.917Z,2.10
2022-12-12T11:43:50.390Z,2.30
2022-12-12T11:44:59.197Z,2.40
2022-12-12T11:46:25.534Z,2.50
2022-12-12T11:47:41.825Z,2.70
2022-12-12T11:48:47.340Z,2.90
2022-12-12T11:49:51.876Z,3.10
2022-12-12T11:50:53.526Z,3.20
2022-12-12T11:51:56.378Z,3.20
2022-12-12T11:53:01.556Z,3.20
2022-12-12T11:54:24.585Z,3.20
2022-12-12T11:55:54.420Z,3.20
2022-12-12T11:57:04.628Z,3.40
2022-12-12T11:58:22.406Z,3.40
2022-12-12T11:59:45.802Z,3.30
2022-12-12T12:00:54.386Z,3.20
2022-12-12T12:02:22.547Z,3.30
2022-12-12T12:03:51.953Z,3.50
2022-12-12T12:05:12.662Z,3.50
2022-12-12T12:06:33.510Z,3.80
2022-12-12T12:08:12.123Z,4.00
2022-12-12T12:09:44.570Z,3.90
2022-12-12T12:10:52.149Z,4.00
2022-12-12T12:12:22.879Z,4.20
2022-12-12T12:13:40.754Z,4.50
2022-12-12T12:14:56.859Z,4.70
2022-12-12T12:16:04.479Z,4.70
2022-12-12T12:17:12.253Z,4.90
2022-12-12T12:18:16.963Z,5.20
2022-12-12T12:19:43.273Z,5.50
2022-12-12T12:21:21.219Z,5.70
2022-12-12T12:22:31.896Z,5.70
2022-12-12T12:23:51.988Z,5.80
2022-12-12T12:25:24.976Z,6.20
2022-12-12T12:26:52.229Z,6.50
2022-12-12T12:28:23.295Z,6.40
2022-12-12T12:30:03.259Z,6.30
2022-12-12T12:31:11.961Z,6.50
2022-12-12T12:32:36.724Z,6.30
2022-12-12T12:34:04.604Z,6.30
2022-12-12T12:35:30.832Z,6.20
2022-12-12T12:37:02.517Z,5.90
2022-12-12T12:38:26.888Z,5.40
2022-12-12T12:39:53.051Z,5.30
2022-12-12T12:41:34.723Z,5.40
2022-12-12T12:42:36.679Z,5.30
2022-12-12T12:44:09.779Z,5.10
2022-12-12T12:45:30.206Z,4.90
2022-12-12T12:46:53.519Z,4.90
2022-12-12T12:48:08.815Z,4.80
2022-12-12T12:49:38.561Z,4.60
2022-12-12T12:51:02.842Z,4.50
2022-12-12T12:52:15.007Z,4.30
2022-12-12T12:53:27.141Z,4.40
2022-12-12T12:54:32.415Z,4.30
2022-12-12T12:55:40.626Z,4.00
2022-12-12T12:56:56.189Z,3.90
2022-12-12T12:58:01.905Z,3.80
2022-12-12T12:59:22.833Z,3.70
2022-12-12T13:00:28.767Z,3.60
2022-12-12T13:01:41.247Z,3.60
2022-12-12T13:03:17.258Z,3.60
2022-12-12T13:04:31.397Z,3.50
2022-12-12T13:05:51.199Z,3.30
2022-12-12T13:07:04.274Z,3.10
2022-12-12T13:08:32.302Z,2.90
2022-12-12T13:09:43.941Z,2.80
2022-12-12T13:10:52.829Z,2.70
2022-12-12T13:12:01.241Z,2.60
2022-12-12T13:13:07.290Z,2.50
2022-12-12T13:14:41.371Z,2.40
2022-12-12T13:16:05.784Z,2.40
2022-12-12T13:17:14.254Z,2.30
2022-12-12T13:18:17.866Z,2.10
2022-12-12T13:19:35.690Z,2.00
2022-12-12T13:20:51.883Z,2.00
2022-12-12T13:22:21.925Z,2.00
2022-12-12T13:23:39.259Z,2.00
2022-12-12T13:24:59.607Z,1.90
2022-12-12T13:26:27.636Z,1.90
2022-12-12T13:27:48.040Z,1.90
2022-12-12T13:28:58.421Z,1.90
2022-12-12T13:30:21.197Z,2.00
2022-12-12T13:31:55.151Z,2.20
2022-12-12T13:33:17.839Z,2.40
2022-12-12T13:34:24.171Z,2.70
2022-12-12T13:35:30.796Z,2.70
2022-12-12T13:36:36.581Z,2.70
2022-12-12T13:37:47.869Z,2.90
2022-12-12T13:38:55.602Z,3.10
2022-12-12T13:40:07.819Z,3.20
2022-12-12T13:41:10.395Z,3.20
2022-12-12T13:42:14.019Z,3.10
2022-12-12T13:43:34.035Z,3.20
2022-12-12T13:44:47.267Z,3.30
2022-12-12T13:45:48.887Z,3.50
2022-12-12T13:46:50.821Z,3.50
2022-12-12T13:47:55.181Z,3.50
2022-12-12T13:49:06.707Z,3.60
2022-12-12T13:50:11.552Z,3.40
2022-12-12T13:51:28.522Z,3.40
2022-12-12T13:52:35.399Z,3.60
2022-12-12T13:53:37.058Z,3.70
2022-12-12T13:54:46.536Z,3.70
2022-12-12T13:55:48.299Z,3.80
2022-12-12T13:56:52.710Z,3.70
2022-12-12T13:58:02.065Z,3.60
2022-12-12T13:59:27.666Z,3.50
2022-12-12T14:00:53.867Z,3.30
2022-12-12T14:02:03.774Z,3.20
2022-12-12T14:03:11.528Z,3.10
2022-12-12T14:04:33.172Z,3.00
2022-12-12T14:05:43.229Z,3.00
2022-12-12T14:06:44.972Z,2.90
2022-12-12T14:08:10.009Z,2.80
2022-12-12T14:09:21.221Z,2.60
2022-12-12T14:10:31.635Z,2.50
2022-12-12T14:11:36.736Z,2.40
2022-12-12T14:12:39.696Z,2.30
2022-12-12T14:13:45.853Z,2.20
2022-12-12T14:14:57.608Z,2.10
2022-12-12T14:16:01.617Z,2.00
2022-12-12T14:17:03.803Z,1.90
2022-12-12T14:18:05.496Z,1.80
2022-12-12T14:19:20.781Z,1.70
2022-12-12T14:20:43.487Z,1.70
2022-12-12T14:21:47.852Z,1.60
2022-12-12T14:22:49.567Z,1.60
2022-12-12T14:23:52.798Z,1.60
2022-12-12T14:25:07.828Z,1.60
2022-12-12T14:26:27.589Z,1.60
2022-12-12T14:28:03.094Z,1.50
2022-12-12T14:29:16.667Z,1.50
2022-12-12T14:30:20.605Z,1.50
2022-12-12T14:31:23.765Z,1.60
2022-12-12T14:32:48.758Z,1.60
2022-12-12T14:34:22.979Z,1.80
2022-12-12T14:35:43.265Z,1.80
2022-12-12T14:36:53.707Z,1.90
2022-12-12T14:38:20.892Z,1.90
2022-12-12T14:39:55.157Z,1.90
2022-12-12T14:41:03.450Z,1.70
2022-12-12T14:42:20.539Z,1.40
2022-12-12T14:43:29.827Z,1.30
2022-12-12T14:44:36.853Z,1.10
2022-12-12T14:45:49.464Z,1.00
2022-12-12T14:46:51.190Z,0.90
2022-12-12T14:48:23.927Z,0.70
2022-12-12T14:49:25.828Z,0.50
2022-12-12T14:50:27.468Z,0.40
2022-12-12T14:51:33.281Z,0.20
2022-12-12T14:52:35.068Z,0.30
2022-12-12T14:53:36.624Z,0.20
2022-12-12T14:54:39.324Z,0.10